UBBBUBBG

Guest
Details From UBBB - HEYDAR ALIYEV
To UBBG - GANJA
Flight Number -
Tags generated
Created
Modified
Stats Distance 171 nm / 317 km
Max Altitude 20,200 ft / 6,157 m
Waypoints 3
Social Downloads 23
Likes 0
Share VATSIM

Download

Looking for another format? Having issues loading an existing format? Contact us
Advertisement - Login to hide

Notes

Basic altitude profile: - Ascent Rate: 2500ft/min - Ascent Speed: 250kts - Cruise Altitude: 35000ft - Cruise Speed: 420kts - Descent Rate: 1500ft/min - Descent Speed: 250kts Options: - Use NATs: yes - Use PACOTS: yes - Use low airways: yes - Use high airways: yes

Route

UBBB AU UBBG

ID Type Via Altitude Latitude Longitude Leg Dist Tot Dist Heading (true) Name
O UBBB APT - 0 ft / 0 m 40.47000˚ 50.05208˚ - 0 nm - HEYDAR ALIYEV
AU NDB - 20,200 ft / 6,157 m 40.56667˚ 48.38333˚ 76 nm 76 nm 275° / 274° AKHSU NDB
O UBBG APT - 0 ft / 0 m 40.73768˚ 46.31758˚ 94 nm 171 nm 277° / 276° GANJA

Altitude Profile

Advertisement - Login to hide

Weather


0- 5 10 15 20 25 30 35+ Temperature / ° C

Clouds and Precipitation
Forecast for 2017-12-17 12:00 UTC. Updated 43 minutes ago

Ground ~20,000 ft ~40,000 ft Winds

UBBB

Details ICAO UBBB (GYD)
Name HEYDAR ALIYEV
Region Azerbiajan
Timezone Asia/Baku (UTC+4.0)
Stats Elevation 10 ft / 3 m (AMSL)
Location 40.470000° 50.052083°
Runways 2
Magnetic Variation 6.235° E

METAR

UBBB 171000Z 13009KT 9999 BKN011 OVC048 11/08 Q1024 R88/CLRD// NOSIG

Decode

TAF

TAF AMD UBBB 170644Z 1707/1806 16008KT 8000 SCT014 OVC030 TX10/1711Z TN06/1802Z TEMPO 1707/1713 14006KT TEMPO 1713/1722 14014KT TEMPO 1722/1804 5000 BR SCT007

Decode

Departure Runways

ID Width Length Bearing (true) Bearing (mag) Surface Threshold Offset Overrun Length
16 197 ft / 60 m 9,110 ft / 2,777 m 159.17° 152.94° Asphalt 0 ft / 0 m 1,312 ft / 400 m
18 167 ft / 51 m 10,947 ft / 3,337 m 180.00° 173.77° Concrete 0 ft / 0 m 1,312 ft / 400 m
34 197 ft / 60 m 9,110 ft / 2,777 m 339.18° 332.95° Asphalt 0 ft / 0 m 656 ft / 200 m
36 167 ft / 51 m 10,947 ft / 3,337 m 0.00° 353.77° Concrete 444 ft / 135 m 541 ft / 165 m

UBBG

Details ICAO UBBG (KVD)
Name GANJA
Region Azerbiajan
Timezone Asia/Baku (UTC+4.0)
Stats Elevation 1,083 ft / 330 m (AMSL)
Location 40.737676° 46.317582°
Runways 1
Magnetic Variation 6.373° E

METAR

UBBG 171000Z 01004KT 290V090 9999 FEW100 08/01 Q1022 R30/CLRD// NOSIG

Decode

TAF

Not found

Destination Runways

ID Width Length Bearing (true) Bearing (mag) Surface Threshold Offset Overrun Length
12 144 ft / 44 m 8,211 ft / 2,503 m 128.25° 121.88° Concrete 0 ft / 0 m 0 ft / 0 m
30 144 ft / 44 m 8,211 ft / 2,503 m 308.26° 301.89° Concrete 0 ft / 0 m 1,630 ft / 497 m

Popular Alternatives